»·PEaware :: N8068C L45-KSBA

N8068C :: L45-KSBA

FLIGHT INFORMATION

Flight Status: Arrived
Operator: Privately registered:
United States
More flights under this callsign
Pilot: Ryan B. (29)
Aircraft: Unknown
(LNC4)
More flights by this aircraft type
Origin: L45 Bakersfield Mun
United States
Destination: KSBA Santa Barbara Mun
United States
More flights between these airports :: More routes between these airports
Route: +GOLET
File this flight plan on PilotEdge
Remarks: charts / V /
Altitude:
(Current/Filed)
100ft
Speed:
(Current/Filed)
220kts
Departed: 23-Oct-11 10:47 AM
Arrived: 23-Oct-11 11:43 AM
Distance/Time
Traveled:
68nm/0:56
Distance/Time
To Go:
Arrived

Flight Plot

Page will automatically refresh every two minutes.

Flight plan parsing failed; only flown route is shown


Map Options




Map Legend


Flown Route
Filed Route
Departure Airport
Arrival Airport
Navaid (VOR, NDB)
Fix

Horizontal Profiles

Position Reports

Time Latitude Longitude Heading Altitude Ground
Speed
23-Oct-11 10:31 35.325502 -118.997399 269 380ft 0kts
23-Oct-11 10:32 35.325502 -118.997399 269 380ft 0kts
23-Oct-11 10:33 35.319570 -118.996246 178 380ft 16kts
23-Oct-11 10:34 35.319361 -118.996057 61 380ft 0kts
23-Oct-11 10:35 35.319362 -118.996057 61 380ft 0kts
23-Oct-11 10:36 35.319362 -118.996056 61 380ft 0kts
23-Oct-11 10:37 35.319362 -118.996056 61 380ft 0kts
23-Oct-11 10:38 35.319362 -118.996055 61 380ft 0kts
23-Oct-11 10:39 35.319363 -118.996055 61 380ft 0kts
23-Oct-11 10:40 35.319363 -118.996054 61 380ft 0kts
23-Oct-11 10:41 35.319363 -118.996054 61 380ft 0kts
23-Oct-11 10:42 35.319698 -118.995425 356 380ft 0kts
23-Oct-11 10:43 35.334908 -118.997281 349 547ft 125kts
23-Oct-11 10:44 35.371893 -119.021391 328 1767ft 162kts
23-Oct-11 10:45 35.412182 -119.048310 329 3447ft 159kts
23-Oct-11 10:46 35.449644 -119.073575 328 5105ft 154kts
23-Oct-11 10:47 35.450337 -119.113486 216 6361ft 156kts
23-Oct-11 10:48 35.413627 -119.147802 203 7336ft 184kts
23-Oct-11 10:49 35.365646 -119.181493 207 8274ft 208kts
23-Oct-11 10:50 35.313836 -119.218025 207 9193ft 217kts
23-Oct-11 10:51 35.260105 -119.255800 207 9967ft 239kts
23-Oct-11 10:52 35.199412 -119.298423 208 10000ft 257kts
23-Oct-11 10:53 35.136568 -119.342537 208 9986ft 261kts
23-Oct-11 10:54 35.073292 -119.386741 208 9997ft 261kts
23-Oct-11 10:55 35.010193 -119.431077 208 9993ft 261kts
23-Oct-11 10:56 34.946927 -119.475929 207 10000ft 264kts
23-Oct-11 10:58 34.818265 -119.565614 207 10000ft 266kts
23-Oct-11 10:59 34.753830 -119.610311 207 10000ft 266kts
23-Oct-11 11:00 34.689738 -119.654761 207 9999ft 266kts
23-Oct-11 11:01 34.622939 -119.694345 200 10000ft 265kts
23-Oct-11 11:02 34.563333 -119.734597 204 9508ft 222kts
23-Oct-11 11:03 34.511975 -119.769133 205 8994ft 192kts
23-Oct-11 11:04 34.469821 -119.805933 213 8289ft 183kts
23-Oct-11 11:05 34.428548 -119.842731 213 7488ft 184kts
23-Oct-11 11:06 34.386886 -119.879597 213 6689ft 185kts
23-Oct-11 11:07 34.362337 -119.931670 262 5910ft 192kts
23-Oct-11 11:08 34.358432 -119.994231 262 5159ft 180kts
23-Oct-11 11:09 34.354885 -120.054494 267 4353ft 178kts
23-Oct-11 11:10 34.393562 -120.081047 16 3546ft 182kts
23-Oct-11 11:11 34.423723 -120.035340 73 2803ft 171kts
23-Oct-11 11:13 34.425698 -119.931360 88 1291ft 166kts
23-Oct-11 11:14 34.426867 -119.881413 87 528ft 138kts
23-Oct-11 11:15 34.427898 -119.836411 86 628ft 146kts
23-Oct-11 11:16 34.396581 -119.816872 201 1905ft 156kts
23-Oct-11 11:17 34.349261 -119.838072 195 3371ft 164kts
23-Oct-11 11:18 34.313045 -119.853083 195 3929ft 165kts
23-Oct-11 11:19 34.268402 -119.842518 146 4013ft 185kts
23-Oct-11 11:20 34.231496 -119.803311 97 3997ft 181kts
23-Oct-11 11:21 34.268358 -119.782614 318 4000ft 189kts
23-Oct-11 11:22 34.268982 -119.841038 253 4002ft 183kts
23-Oct-11 11:23 34.300119 -119.873406 27 4006ft 182kts
23-Oct-11 11:24 34.297986 -119.826208 138 4020ft 169kts
23-Oct-11 11:25 34.259134 -119.795009 180 3996ft 172kts
23-Oct-11 11:26 34.249221 -119.840829 317 4016ft 190kts
23-Oct-11 11:27 34.272560 -119.895086 277 4012ft 196kts
23-Oct-11 11:28 34.277970 -119.961908 269 3999ft 199kts
23-Oct-11 11:29 34.276892 -120.029056 264 4000ft 198kts
23-Oct-11 11:30 34.304710 -120.077378 349 3677ft 204kts
23-Oct-11 11:31 34.359444 -120.089318 0 3523ft 178kts
23-Oct-11 11:32 34.401899 -120.082282 50 3478ft 133kts
23-Oct-11 11:33 34.421590 -120.045407 69 2963ft 128kts
23-Oct-11 11:34 34.424631 -120.006452 88 2432ft 106kts
23-Oct-11 11:35 34.424778 -119.971846 85 1864ft 101kts
23-Oct-11 11:36 34.425694 -119.935908 85 1368ft 106kts
23-Oct-11 11:37 34.426351 -119.900379 85 824ft 106kts
23-Oct-11 11:38 34.427200 -119.864857 84 259ft 103kts
23-Oct-11 11:39 34.427831 -119.838259 100 14ft 21kts
23-Oct-11 11:40 34.424321 -119.836550 159 14ft 20kts

Navigation Log

Ident Type
Flight plan parsing failed, navigation log unavailable